Time;durP1;ratioP1;P1;durP2;ratioP2;P2;SDS_P1;SDS_P2;PMS_P1;PMS_P2;Temp;Humidity;BMP_temperature;BMP_pressure;BME280_temperature;BME280_humidity;BME280_pressure;Samples;Min_cycle;Max_cycle;Signal;HPM_P1;HPM_P2
2022/11/15 00:01:08;;;;;;;;;;;19.70;44.10;;;;;;5082896;28;19951;-79
2022/11/15 00:03:35;;;;;;;;;;;19.70;44.10;;;;;;5103776;28;19924;-74
2022/11/15 00:06:02;;;;;;;;;;;19.70;44.10;;;;;;5093663;28;19943;-78
2022/11/15 00:08:30;;;;;;;;;;;19.70;44.10;;;;;;5087477;28;19955;-74
2022/11/15 00:10:56;;;;;;;;;;;19.70;44.10;;;;;;5088165;28;19924;-74
2022/11/15 00:13:23;;;;;;;;;;;19.70;44.00;;;;;;5098861;28;19925;-81
2022/11/15 00:15:50;;;;;;;;;;;19.70;44.00;;;;;;5097140;28;20042;-76
2022/11/15 00:18:18;;;;;;;;;;;19.70;44.10;;;;;;5095021;28;19935;-82
2022/11/15 00:20:45;;;;;;;;;;;19.70;44.00;;;;;;5092218;28;19936;-85
2022/11/15 00:23:12;;;;;;;;;;;19.70;44.00;;;;;;5081961;28;19932;-82
2022/11/15 00:25:39;;;;;;;;;;;19.70;44.00;;;;;;5083091;28;19978;-84
2022/11/15 00:28:05;;;;;;;;;;;19.70;44.00;;;;;;5081690;28;19978;-81
2022/11/15 00:30:32;;;;;;;;;;;19.70;44.10;;;;;;5080613;28;19951;-80
2022/11/15 00:33:02;;;;;;;;;;;19.70;44.00;;;;;;5083415;28;19960;-81
2022/11/15 00:35:31;;;;;;;;;;;19.70;44.10;;;;;;5075738;28;19924;-80
2022/11/15 00:37:58;;;;;;;;;;;19.70;44.10;;;;;;5072558;28;19974;-84
2022/11/15 00:40:25;;;;;;;;;;;19.70;44.10;;;;;;5073025;28;19950;-80
2022/11/15 00:42:52;;;;;;;;;;;19.70;44.10;;;;;;5093806;28;19924;-83
2022/11/15 00:45:18;;;;;;;;;;;19.70;44.00;;;;;;5095236;28;19924;-82
2022/11/15 00:47:46;;;;;;;;;;;19.70;44.00;;;;;;5076842;28;20386;-81
2022/11/15 00:50:13;;;;;;;;;;;19.70;44.00;;;;;;5077194;28;19932;-83
2022/11/15 00:52:41;;;;;;;;;;;19.70;44.00;;;;;;5076830;28;19924;-83
2022/11/15 00:55:08;;;;;;;;;;;19.70;44.00;;;;;;5080657;28;19928;-84
2022/11/15 00:57:35;;;;;;;;;;;19.70;44.00;;;;;;5086444;28;19924;-80
2022/11/15 01:00:02;;;;;;;;;;;19.70;44.00;;;;;;5076811;28;20041;-83
2022/11/15 01:02:29;;;;;;;;;;;19.70;44.00;;;;;;5079616;28;19928;-80
2022/11/15 01:04:55;;;;;;;;;;;19.60;43.90;;;;;;5078983;28;19939;-80
2022/11/15 01:07:22;;;;;;;;;;;19.60;43.90;;;;;;5078566;28;19925;-85
2022/11/15 01:09:50;;;;;;;;;;;19.70;44.00;;;;;;5077813;28;19994;-83
2022/11/15 01:12:17;;;;;;;;;;;19.70;44.00;;;;;;5080752;28;20260;-78
2022/11/15 01:14:44;;;;;;;;;;;19.70;44.00;;;;;;5080798;28;19931;-82
2022/11/15 01:17:11;;;;;;;;;;;19.70;44.00;;;;;;5094553;28;19932;-83
2022/11/15 01:19:37;;;;;;;;;;;19.70;44.00;;;;;;5080889;28;19982;-78
2022/11/15 01:22:04;;;;;;;;;;;19.70;44.00;;;;;;5081864;28;19947;-82
2022/11/15 01:24:31;;;;;;;;;;;19.70;44.00;;;;;;5080711;28;19929;-81
2022/11/15 01:26:59;;;;;;;;;;;19.70;43.90;;;;;;5081410;28;19928;-80
2022/11/15 01:29:26;;;;;;;;;;;19.70;43.90;;;;;;5083455;28;19924;-82
2022/11/15 01:31:53;;;;;;;;;;;19.70;43.90;;;;;;5080430;28;19924;-80
2022/11/15 01:34:20;;;;;;;;;;;19.60;43.80;;;;;;5086663;28;19969;-80
2022/11/15 01:36:47;;;;;;;;;;;19.70;43.80;;;;;;5096317;28;19935;-82
2022/11/15 01:39:15;;;;;;;;;;;19.70;43.90;;;;;;5079444;28;19932;-83
2022/11/15 01:41:41;;;;;;;;;;;19.70;43.80;;;;;;5080506;28;19935;-84
2022/11/15 01:44:27;;;;;;;;;;;19.60;43.70;;;;;;5095171;28;19924;-77
2022/11/15 01:46:55;;;;;;;;;;;19.60;43.70;;;;;;5077176;28;19924;-83
2022/11/15 01:49:22;;;;;;;;;;;19.60;43.70;;;;;;5090032;28;19928;-83
2022/11/15 01:51:49;;;;;;;;;;;19.70;43.70;;;;;;5093651;28;20319;-83
2022/11/15 01:54:17;;;;;;;;;;;19.70;43.70;;;;;;5090485;28;19928;-85
2022/11/15 01:56:44;;;;;;;;;;;19.70;43.80;;;;;;5083075;28;19920;-80
2022/11/15 01:59:10;;;;;;;;;;;19.60;43.60;;;;;;5081720;28;20382;-78
2022/11/15 02:01:37;;;;;;;;;;;19.70;43.70;;;;;;5078702;28;20358;-81
2022/11/15 02:04:07;;;;;;;;;;;19.60;43.60;;;;;;5097073;28;19928;-85
2022/11/15 02:06:33;;;;;;;;;;;19.60;43.60;;;;;;5078069;28;19935;-82
2022/11/15 02:09:00;;;;;;;;;;;19.60;43.60;;;;;;5070956;28;20617;-83
2022/11/15 02:11:27;;;;;;;;;;;19.60;43.60;;;;;;5094726;28;19925;-77
2022/11/15 02:13:54;;;;;;;;;;;19.60;43.50;;;;;;5073288;28;19928;-84
2022/11/15 02:16:22;;;;;;;;;;;19.60;43.50;;;;;;5089603;28;19928;-84
2022/11/15 02:18:50;;;;;;;;;;;19.60;43.50;;;;;;5070197;28;19931;-81
2022/11/15 02:21:20;;;;;;;;;;;19.60;43.50;;;;;;5097463;28;19928;-84
2022/11/15 02:24:11;;;;;;;;;;;19.60;43.50;;;;;;5091081;28;19931;-84
2022/11/15 02:26:43;;;;;;;;;;;19.60;43.50;;;;;;5075706;28;20046;-81
2022/11/15 02:29:11;;;;;;;;;;;19.60;43.50;;;;;;5079461;28;19988;-74
2022/11/15 02:31:41;;;;;;;;;;;19.60;43.40;;;;;;5074471;28;19924;-80
2022/11/15 02:34:09;;;;;;;;;;;19.60;43.40;;;;;;5091802;28;19925;-79
2022/11/15 02:36:37;;;;;;;;;;;19.60;43.40;;;;;;5071324;28;19925;-79
2022/11/15 02:39:05;;;;;;;;;;;19.60;43.40;;;;;;5081212;28;19928;-82
2022/11/15 02:41:35;;;;;;;;;;;19.60;43.40;;;;;;5088666;28;19931;-81
2022/11/15 02:44:01;;;;;;;;;;;19.60;43.30;;;;;;5098392;28;19924;-77
2022/11/15 02:49:12;;;;;;;;;;;19.60;43.30;;;;;;5097539;28;19924;-82
2022/11/15 02:51:38;;;;;;;;;;;19.60;43.30;;;;;;5082095;28;20011;-82
2022/11/15 02:54:05;;;;;;;;;;;19.60;43.20;;;;;;5082171;28;19924;-83
2022/11/15 02:56:32;;;;;;;;;;;19.60;43.20;;;;;;5083921;28;19995;-79
2022/11/15 02:59:06;;;;;;;;;;;19.60;43.30;;;;;;5085659;28;19931;-81
2022/11/15 03:01:37;;;;;;;;;;;19.60;43.20;;;;;;5082752;28;19960;-82
2022/11/15 03:04:05;;;;;;;;;;;19.60;43.20;;;;;;5085168;28;19947;-80
2022/11/15 03:06:36;;;;;;;;;;;19.60;43.20;;;;;;5084856;28;19924;-79
2022/11/15 03:09:04;;;;;;;;;;;19.60;43.20;;;;;;5098207;28;19932;-80
2022/11/15 03:11:31;;;;;;;;;;;19.60;43.20;;;;;;5082934;28;20027;-79
2022/11/15 03:13:59;;;;;;;;;;;19.60;43.20;;;;;;5098520;28;19935;-85
2022/11/15 03:16:27;;;;;;;;;;;19.60;43.80;;;;;;5082492;28;19974;-80
2022/11/15 03:18:54;;;;;;;;;;;19.60;43.20;;;;;;5093143;28;19929;-79
2022/11/15 03:21:21;;;;;;;;;;;19.60;43.20;;;;;;5081349;28;19928;-81
2022/11/15 03:23:49;;;;;;;;;;;19.60;43.20;;;;;;5085969;28;19931;-83
2022/11/15 03:26:17;;;;;;;;;;;19.60;43.20;;;;;;5088223;28;19982;-81
2022/11/15 03:28:44;;;;;;;;;;;19.60;43.10;;;;;;5085913;28;19936;-81
2022/11/15 03:33:52;;;;;;;;;;;19.60;43.10;;;;;;5094319;28;19925;-80
2022/11/15 03:36:19;;;;;;;;;;;19.60;43.00;;;;;;5093876;28;19955;-82
2022/11/15 03:38:46;;;;;;;;;;;19.60;43.00;;;;;;5099542;28;19948;-80
2022/11/15 03:41:16;;;;;;;;;;;19.60;43.00;;;;;;5083236;28;20063;-80
2022/11/15 03:43:44;;;;;;;;;;;19.50;42.90;;;;;;5100797;28;19954;-83
2022/11/15 03:46:12;;;;;;;;;;;19.60;43.00;;;;;;5091485;28;20306;-85
2022/11/15 03:48:40;;;;;;;;;;;19.50;42.80;;;;;;5079559;28;19936;-85
2022/11/15 03:51:07;;;;;;;;;;;19.60;42.90;;;;;;5098082;28;19925;-84
2022/11/15 03:53:34;;;;;;;;;;;19.50;42.80;;;;;;5081508;28;20014;-83
2022/11/15 03:56:01;;;;;;;;;;;19.50;42.80;;;;;;5083180;28;19924;-85
2022/11/15 03:58:29;;;;;;;;;;;19.60;42.90;;;;;;5075683;28;20007;-85
2022/11/15 04:00:56;;;;;;;;;;;19.50;42.80;;;;;;5078352;28;19924;-77
2022/11/15 04:03:23;;;;;;;;;;;19.60;42.80;;;;;;5082450;28;19929;-84
2022/11/15 04:05:49;;;;;;;;;;;19.60;42.80;;;;;;5080615;28;19924;-84
2022/11/15 04:08:16;;;;;;;;;;;19.60;42.80;;;;;;5096008;28;19928;-78
2022/11/15 04:10:43;;;;;;;;;;;19.60;42.70;;;;;;5081614;28;19934;-85
2022/11/15 04:13:10;;;;;;;;;;;19.60;42.70;;;;;;5078801;28;19948;-85
2022/11/15 04:15:38;;;;;;;;;;;19.60;42.70;;;;;;5099324;28;19977;-82
2022/11/15 04:18:05;;;;;;;;;;;19.60;42.70;;;;;;5091826;28;19928;-83
2022/11/15 04:26:02;;;;;;;;;;;19.50;42.60;;;;;;5102509;28;20006;-81
2022/11/15 04:28:28;;;;;;;;;;;19.50;42.50;;;;;;5077985;28;20522;-80
2022/11/15 04:30:57;;;;;;;;;;;19.50;42.50;;;;;;5083210;28;19935;-85
2022/11/15 04:33:23;;;;;;;;;;;19.50;42.50;;;;;;5075977;28;20382;-77
2022/11/15 04:38:31;;;;;;;;;;;19.50;42.50;;;;;;5088963;28;19950;-85
2022/11/15 04:40:57;;;;;;;;;;;19.50;42.50;;;;;;5066320;28;19925;-84
2022/11/15 04:43:24;;;;;;;;;;;19.50;42.50;;;;;;5075207;28;19928;-84
2022/11/15 04:45:51;;;;;;;;;;;19.50;42.50;;;;;;5088558;28;20341;-84
2022/11/15 04:48:19;;;;;;;;;;;19.50;42.50;;;;;;5071716;28;19935;-84
2022/11/15 04:50:48;;;;;;;;;;;19.50;42.50;;;;;;5056940;28;19937;-83
2022/11/15 04:53:15;;;;;;;;;;;19.50;42.50;;;;;;5065202;28;19951;-85
2022/11/15 04:55:41;;;;;;;;;;;19.50;42.50;;;;;;5073411;28;19929;-83
2022/11/15 04:58:09;;;;;;;;;;;19.50;42.50;;;;;;5097497;28;19931;-83
2022/11/15 05:00:36;;;;;;;;;;;19.50;42.50;;;;;;5076908;28;19924;-84
2022/11/15 05:05:49;;;;;;;;;;;19.50;42.50;;;;;;5069816;28;19925;-85
2022/11/15 05:08:16;;;;;;;;;;;19.50;42.40;;;;;;5054599;28;19972;-83
2022/11/15 05:10:44;;;;;;;;;;;19.50;42.40;;;;;;5070246;28;19925;-83
2022/11/15 05:13:10;;;;;;;;;;;19.50;42.40;;;;;;5062834;28;19925;-83
2022/11/15 05:15:37;;;;;;;;;;;19.50;42.40;;;;;;5093857;28;20270;-83
2022/11/15 05:18:04;;;;;;;;;;;19.50;42.40;;;;;;5089814;28;19924;-83
2022/11/15 05:20:31;;;;;;;;;;;19.50;42.40;;;;;;5064864;28;19954;-82
2022/11/15 05:22:59;;;;;;;;;;;19.50;42.30;;;;;;5074008;28;19931;-83
2022/11/15 05:25:26;;;;;;;;;;;19.50;42.30;;;;;;5070982;28;19939;-85
2022/11/15 05:27:52;;;;;;;;;;;19.50;42.30;;;;;;5079539;28;19925;-80
2022/11/15 05:30:19;;;;;;;;;;;19.50;42.30;;;;;;5073121;28;19925;-83
2022/11/15 05:32:46;;;;;;;;;;;19.50;42.30;;;;;;5091196;28;19925;-85
2022/11/15 05:35:13;;;;;;;;;;;19.50;42.30;;;;;;5098295;28;19928;-82
2022/11/15 05:37:40;;;;;;;;;;;19.50;42.20;;;;;;5072246;28;20383;-82
2022/11/15 05:40:09;;;;;;;;;;;19.40;42.20;;;;;;5091671;28;19925;-81
2022/11/15 05:42:36;;;;;;;;;;;19.50;42.20;;;;;;5083628;28;19934;-82
2022/11/15 05:45:03;;;;;;;;;;;19.50;42.20;;;;;;5077610;28;19925;-78
2022/11/15 05:47:29;;;;;;;;;;;19.50;42.20;;;;;;5088818;28;19920;-82
2022/11/15 05:49:56;;;;;;;;;;;19.50;42.20;;;;;;5071901;28;19928;-83
2022/11/15 05:52:25;;;;;;;;;;;19.40;42.20;;;;;;5072703;28;19982;-79
2022/11/15 05:54:52;;;;;;;;;;;19.50;42.20;;;;;;5104057;28;19974;-79
2022/11/15 05:57:20;;;;;;;;;;;19.50;42.20;;;;;;5095899;28;19925;-79
2022/11/15 05:59:47;;;;;;;;;;;19.50;42.30;;;;;;5074873;28;20297;-79
2022/11/15 06:02:14;;;;;;;;;;;19.50;42.30;;;;;;5085555;28;19931;-80
2022/11/15 06:04:41;;;;;;;;;;;19.50;42.90;;;;;;5075221;28;19924;-80
2022/11/15 06:07:07;;;;;;;;;;;19.40;42.30;;;;;;5076567;28;19932;-77
2022/11/15 06:09:34;;;;;;;;;;;19.50;42.40;;;;;;5068237;28;19924;-80
2022/11/15 06:12:01;;;;;;;;;;;19.50;42.40;;;;;;5082302;28;19925;-77
2022/11/15 06:14:30;;;;;;;;;;;19.50;42.40;;;;;;5073033;28;19975;-74
2022/11/15 06:16:56;;;;;;;;;;;19.50;42.50;;;;;;5080477;28;19925;-80
2022/11/15 06:19:23;;;;;;;;;;;19.50;42.50;;;;;;5063155;28;19925;-75
2022/11/15 06:21:50;;;;;;;;;;;19.50;42.50;;;;;;5051861;28;19924;-81
2022/11/15 06:24:17;;;;;;;;;;;19.50;42.50;;;;;;5082404;28;20317;-82
2022/11/15 06:26:44;;;;;;;;;;;19.50;42.50;;;;;;5067152;28;20531;-82
2022/11/15 06:29:10;;;;;;;;;;;19.50;42.50;;;;;;5082155;28;20301;-81
2022/11/15 06:31:39;;;;;;;;;;;19.50;42.60;;;;;;5062852;28;19932;-82
2022/11/15 06:34:05;;;;;;;;;;;19.50;42.70;;;;;;5086181;28;20037;-81
2022/11/15 06:36:32;;;;;;;;;;;19.50;42.70;;;;;;5074711;28;19997;-78
2022/11/15 06:38:59;;;;;;;;;;;19.50;42.90;;;;;;5108342;28;20286;-79
2022/11/15 06:41:26;;;;;;;;;;;19.50;42.70;;;;;;5074000;28;20348;-76
2022/11/15 06:43:52;;;;;;;;;;;19.50;42.70;;;;;;5078624;28;19958;-81
2022/11/15 06:46:19;;;;;;;;;;;19.50;42.70;;;;;;5091624;28;19925;-79
2022/11/15 06:48:49;;;;;;;;;;;19.50;42.80;;;;;;5074938;28;20302;-81
2022/11/15 06:51:15;;;;;;;;;;;19.50;42.80;;;;;;5069123;28;20036;-81
2022/11/15 06:53:42;;;;;;;;;;;19.50;42.80;;;;;;5069028;28;19924;-82
2022/11/15 06:56:09;;;;;;;;;;;19.50;42.80;;;;;;5052644;28;19947;-81
2022/11/15 06:58:36;;;;;;;;;;;19.60;42.90;;;;;;5052313;28;20386;-81
2022/11/15 07:01:03;;;;;;;;;;;19.50;42.90;;;;;;5076337;28;19928;-75
2022/11/15 07:03:30;;;;;;;;;;;19.60;43.00;;;;;;5056845;28;19925;-82
2022/11/15 07:05:58;;;;;;;;;;;19.60;43.00;;;;;;5069045;28;19957;-82
2022/11/15 07:08:25;;;;;;;;;;;19.60;43.00;;;;;;5078184;28;20283;-82
2022/11/15 07:10:52;;;;;;;;;;;19.60;43.00;;;;;;5081698;28;19939;-83
2022/11/15 07:13:19;;;;;;;;;;;19.60;43.00;;;;;;5086610;28;19924;-81
2022/11/15 07:15:46;;;;;;;;;;;19.60;43.10;;;;;;5088977;28;19924;-81
2022/11/15 07:18:13;;;;;;;;;;;19.50;43.00;;;;;;5084112;28;19929;-82
2022/11/15 07:20:40;;;;;;;;;;;19.50;43.00;;;;;;5072223;28;19933;-79
2022/11/15 07:23:09;;;;;;;;;;;19.60;43.10;;;;;;5085652;28;19978;-82
2022/11/15 07:25:35;;;;;;;;;;;19.50;43.00;;;;;;5071154;28;19940;-79
2022/11/15 07:28:02;;;;;;;;;;;19.60;43.10;;;;;;5067827;28;19925;-82
2022/11/15 07:30:29;;;;;;;;;;;19.60;43.10;;;;;;5070809;28;19990;-79
2022/11/15 07:32:56;;;;;;;;;;;19.60;43.10;;;;;;5076337;28;19932;-80
2022/11/15 07:35:23;;;;;;;;;;;19.60;43.10;;;;;;5078616;28;19978;-82
2022/11/15 07:37:56;;;;;;;;;;;19.60;43.10;;;;;;5081040;28;19928;-82
2022/11/15 07:40:24;;;;;;;;;;;19.60;43.10;;;;;;5072151;28;19955;-81
2022/11/15 07:42:55;;;;;;;;;;;19.60;43.10;;;;;;5089540;28;19932;-82
2022/11/15 07:45:22;;;;;;;;;;;19.60;43.10;;;;;;5083690;28;19928;-82
2022/11/15 07:47:49;;;;;;;;;;;19.60;43.10;;;;;;5066826;28;19935;-83
2022/11/15 07:50:16;;;;;;;;;;;19.60;43.20;;;;;;5070174;28;19928;-83
2022/11/15 07:52:43;;;;;;;;;;;19.60;43.20;;;;;;5071620;28;19932;-82
2022/11/15 07:55:10;;;;;;;;;;;19.60;43.20;;;;;;5072443;28;19936;-81
2022/11/15 07:57:38;;;;;;;;;;;19.60;43.20;;;;;;5074844;28;19924;-81
2022/11/15 08:00:05;;;;;;;;;;;19.60;43.20;;;;;;5063796;28;19924;-75
2022/11/15 08:02:32;;;;;;;;;;;19.60;43.20;;;;;;5066384;28;19928;-75
2022/11/15 08:04:59;;;;;;;;;;;19.60;43.20;;;;;;5087479;28;20003;-75
2022/11/15 08:07:25;;;;;;;;;;;19.60;43.20;;;;;;5067224;28;19933;-75
2022/11/15 08:09:52;;;;;;;;;;;19.60;43.20;;;;;;5078000;28;20371;-75
2022/11/15 08:12:19;;;;;;;;;;;19.60;43.20;;;;;;5085571;28;20371;-69
2022/11/15 08:14:48;;;;;;;;;;;19.60;43.20;;;;;;5085049;28;19936;-70
2022/11/15 08:17:14;;;;;;;;;;;19.60;43.20;;;;;;5070764;28;20011;-72
2022/11/15 08:19:41;;;;;;;;;;;19.60;43.20;;;;;;5075029;28;19924;-70
2022/11/15 08:22:08;;;;;;;;;;;19.60;43.20;;;;;;5084915;28;19932;-73
2022/11/15 08:24:35;;;;;;;;;;;19.60;43.30;;;;;;5072712;28;20433;-76
2022/11/15 08:27:02;;;;;;;;;;;19.60;43.30;;;;;;5069322;28;19931;-73
2022/11/15 08:29:28;;;;;;;;;;;19.60;43.30;;;;;;5075708;28;19929;-75
2022/11/15 08:31:57;;;;;;;;;;;19.70;43.50;;;;;;5093187;28;19947;-75
2022/11/15 08:34:24;;;;;;;;;;;19.70;43.50;;;;;;5085480;28;19982;-72
2022/11/15 08:36:50;;;;;;;;;;;19.70;43.50;;;;;;5069500;28;19962;-74
2022/11/15 08:39:17;;;;;;;;;;;19.70;43.50;;;;;;5063652;28;19929;-73
2022/11/15 08:41:44;;;;;;;;;;;19.70;43.50;;;;;;5074826;28;19951;-71
2022/11/15 08:44:11;;;;;;;;;;;19.70;43.50;;;;;;5081732;28;20285;-73
2022/11/15 08:46:37;;;;;;;;;;;19.70;43.50;;;;;;5091427;28;19924;-77
2022/11/15 08:49:06;;;;;;;;;;;19.70;43.60;;;;;;5093510;28;19925;-75
2022/11/15 08:51:33;;;;;;;;;;;19.70;43.80;;;;;;5090681;28;19928;-76
2022/11/15 08:53:59;;;;;;;;;;;19.70;44.00;;;;;;5073215;28;19929;-83
2022/11/15 08:56:26;;;;;;;;;;;19.80;44.20;;;;;;5072386;28;19928;-74
2022/11/15 08:58:53;;;;;;;;;;;19.70;43.80;;;;;;5071423;28;19921;-67
2022/11/15 09:01:20;;;;;;;;;;;19.70;43.60;;;;;;5089783;28;19974;-66
2022/11/15 09:03:50;;;;;;;;;;;19.80;43.70;;;;;;5090069;28;19928;-67
2022/11/15 09:06:19;;;;;;;;;;;19.70;43.60;;;;;;5074397;28;19954;-68
2022/11/15 09:08:46;;;;;;;;;;;19.80;43.70;;;;;;5088448;28;19924;-66
2022/11/15 09:11:12;;;;;;;;;;;19.80;43.70;;;;;;5075668;28;19924;-70
2022/11/15 09:13:39;;;;;;;;;;;19.80;43.70;;;;;;5068534;28;19928;-70
2022/11/15 09:16:06;;;;;;;;;;;19.80;43.70;;;;;;5087990;28;19925;-73
2022/11/15 09:18:33;;;;;;;;;;;19.80;43.70;;;;;;5074694;28;19955;-69
2022/11/15 09:21:00;;;;;;;;;;;19.80;43.70;;;;;;5094175;28;19928;-69
2022/11/15 09:23:28;;;;;;;;;;;19.90;43.80;;;;;;5072713;28;19993;-67
2022/11/15 09:25:58;;;;;;;;;;;19.90;43.80;;;;;;5071445;28;19924;-69
2022/11/15 09:28:25;;;;;;;;;;;19.90;43.80;;;;;;5085796;28;19924;-68
2022/11/15 09:30:52;;;;;;;;;;;19.90;43.80;;;;;;5075373;28;19928;-70
2022/11/15 09:33:19;;;;;;;;;;;19.90;43.80;;;;;;5077766;28;20009;-70
2022/11/15 09:35:46;;;;;;;;;;;19.90;43.80;;;;;;5073974;28;19924;-69
2022/11/15 09:38:12;;;;;;;;;;;19.90;43.80;;;;;;5076988;28;19924;-69
2022/11/15 09:40:41;;;;;;;;;;;19.90;43.80;;;;;;5089235;28;20500;-69
2022/11/15 09:43:18;;;;;;;;;;;19.90;43.90;;;;;;5088861;28;19947;-71
2022/11/15 09:45:48;;;;;;;;;;;19.90;43.40;;;;;;5069527;28;19931;-71
2022/11/15 09:48:19;;;;;;;;;;;19.90;43.90;;;;;;5071969;28;21251;-72
2022/11/15 09:50:47;;;;;;;;;;;19.90;43.90;;;;;;5085598;28;20289;-72
2022/11/15 09:53:14;;;;;;;;;;;19.90;43.90;;;;;;5090452;28;19924;-69
2022/11/15 09:55:45;;;;;;;;;;;20.00;44.00;;;;;;5074067;28;19935;-70
2022/11/15 09:58:14;;;;;;;;;;;20.00;44.00;;;;;;5072529;28;20401;-68
2022/11/15 10:00:41;;;;;;;;;;;19.90;43.90;;;;;;5071675;28;19931;-61
2022/11/15 10:03:09;;;;;;;;;;;20.00;44.00;;;;;;5086444;28;20286;-61
2022/11/15 10:05:38;;;;;;;;;;;20.00;44.00;;;;;;5062096;28;19932;-61
2022/11/15 10:08:07;;;;;;;;;;;20.00;43.90;;;;;;5068707;28;19928;-61
2022/11/15 10:10:36;;;;;;;;;;;20.00;43.90;;;;;;5080428;28;19974;-61
2022/11/15 10:13:04;;;;;;;;;;;20.00;43.80;;;;;;5066840;28;19977;-61
2022/11/15 10:15:31;;;;;;;;;;;19.90;43.70;;;;;;5073275;28;20404;-61
2022/11/15 10:18:05;;;;;;;;;;;19.90;43.70;;;;;;5072948;28;19924;-61
2022/11/15 10:20:35;;;;;;;;;;;19.90;43.70;;;;;;5084278;28;19954;-60
2022/11/15 10:23:03;;;;;;;;;;;19.90;43.60;;;;;;5068473;28;19956;-60
2022/11/15 10:25:30;;;;;;;;;;;19.90;43.60;;;;;;5072974;28;19924;-60
2022/11/15 10:27:57;;;;;;;;;;;19.90;43.70;;;;;;5083743;28;19939;-61
2022/11/15 10:30:30;;;;;;;;;;;19.90;43.60;;;;;;5088049;28;19932;-80
2022/11/15 10:32:57;;;;;;;;;;;19.90;43.60;;;;;;5082805;28;19994;-73
2022/11/15 10:35:25;;;;;;;;;;;19.90;43.70;;;;;;5089688;28;19933;-73
2022/11/15 10:37:52;;;;;;;;;;;19.90;43.70;;;;;;5086496;28;19978;-72
2022/11/15 10:40:22;;;;;;;;;;;19.90;43.70;;;;;;5083519;28;19947;-70
2022/11/15 10:42:49;;;;;;;;;;;19.90;43.80;;;;;;5085933;28;19982;-71
2022/11/15 10:45:28;;;;;;;;;;;19.90;43.80;;;;;;5067985;28;19928;-70
2022/11/15 10:47:54;;;;;;;;;;;19.90;43.80;;;;;;5069343;28;20387;-71
2022/11/15 10:50:28;;;;;;;;;;;19.90;43.80;;;;;;5069643;28;19924;-76
2022/11/15 10:52:55;;;;;;;;;;;19.90;43.80;;;;;;5068551;28;19925;-72
2022/11/15 10:55:26;;;;;;;;;;;19.90;43.90;;;;;;5078192;28;19929;-72
2022/11/15 10:57:53;;;;;;;;;;;19.90;43.90;;;;;;5068819;28;19925;-74
2022/11/15 11:00:38;;;;;;;;;;;19.90;43.90;;;;;;5066663;28;19932;-70
2022/11/15 11:03:10;;;;;;;;;;;19.90;43.90;;;;;;5064426;28;19924;-72
2022/11/15 11:05:37;;;;;;;;;;;19.90;43.90;;;;;;5069757;28;19936;-71
2022/11/15 11:08:05;;;;;;;;;;;19.90;43.90;;;;;;5084311;28;19925;-73
2022/11/15 11:10:33;;;;;;;;;;;20.00;44.00;;;;;;5088770;28;19932;-78
2022/11/15 11:13:13;;;;;;;;;;;19.90;43.90;;;;;;5070045;28;20004;-69
2022/11/15 11:15:41;;;;;;;;;;;20.00;44.00;;;;;;5071336;28;19929;-72
2022/11/15 11:18:09;;;;;;;;;;;20.00;44.10;;;;;;5072200;28;19928;-72
2022/11/15 11:20:37;;;;;;;;;;;20.00;44.10;;;;;;5080054;28;19934;-73
2022/11/15 11:23:22;;;;;;;;;;;20.00;44.10;;;;;;5063779;28;19947;-72
2022/11/15 11:25:51;;;;;;;;;;;20.00;44.10;;;;;;5064511;28;19959;-75
2022/11/15 11:28:31;;;;;;;;;;;20.00;44.10;;;;;;5068391;28;19982;-73
2022/11/15 11:31:01;;;;;;;;;;;20.00;44.20;;;;;;5083822;28;20306;-73
2022/11/15 11:33:30;;;;;;;;;;;20.00;44.20;;;;;;5094345;28;20321;-75
2022/11/15 11:36:00;;;;;;;;;;;20.00;44.20;;;;;;5067346;28;19932;-73
2022/11/15 11:38:36;;;;;;;;;;;20.00;44.20;;;;;;5072866;28;19936;-75
2022/11/15 11:41:05;;;;;;;;;;;20.00;44.20;;;;;;5086671;28;19970;-73
2022/11/15 11:43:34;;;;;;;;;;;20.00;44.20;;;;;;5067394;28;19975;-73
2022/11/15 11:46:09;;;;;;;;;;;20.00;44.20;;;;;;5070108;28;19928;-72
2022/11/15 11:48:41;;;;;;;;;;;20.00;44.20;;;;;;5086506;28;20010;-75
2022/11/15 11:51:09;;;;;;;;;;;20.00;44.30;;;;;;5089903;28;19928;-72
2022/11/15 11:53:36;;;;;;;;;;;20.00;44.30;;;;;;5072492;28;19924;-73
2022/11/15 11:56:05;;;;;;;;;;;20.10;44.30;;;;;;5082570;28;19968;-72
2022/11/15 11:58:34;;;;;;;;;;;20.10;44.30;;;;;;5067708;28;19931;-73
2022/11/15 12:01:03;;;;;;;;;;;20.10;44.30;;;;;;5059786;28;19929;-61
2022/11/15 12:03:35;;;;;;;;;;;20.10;44.30;;;;;;5088299;28;19925;-61
2022/11/15 12:06:02;;;;;;;;;;;20.10;44.30;;;;;;5081994;28;19934;-61
2022/11/15 12:08:32;;;;;;;;;;;20.10;44.30;;;;;;5101328;28;19928;-62
2022/11/15 12:11:00;;;;;;;;;;;20.10;44.30;;;;;;5072542;28;20019;-62
2022/11/15 12:13:27;;;;;;;;;;;20.10;44.10;;;;;;5068193;28;19932;-60
2022/11/15 12:15:54;;;;;;;;;;;20.00;44.00;;;;;;5083756;28;19924;-61
2022/11/15 12:18:21;;;;;;;;;;;20.00;44.00;;;;;;5072398;28;19994;-63
2022/11/15 12:20:52;;;;;;;;;;;20.00;44.10;;;;;;5069699;28;19932;-62
2022/11/15 12:23:20;;;;;;;;;;;19.90;44.00;;;;;;5089328;28;19981;-62
2022/11/15 12:25:49;;;;;;;;;;;19.90;44.60;;;;;;5074903;28;19924;-61
2022/11/15 12:28:16;;;;;;;;;;;19.90;44.10;;;;;;5069178;28;19925;-61
2022/11/15 12:30:44;;;;;;;;;;;19.90;44.10;;;;;;5086311;28;19932;-62
2022/11/15 12:33:26;;;;;;;;;;;19.90;44.20;;;;;;5083947;28;19928;-62
2022/11/15 12:35:59;;;;;;;;;;;19.90;44.10;;;;;;5070772;28;19924;-61
2022/11/15 12:38:41;;;;;;;;;;;19.90;44.10;;;;;;5072903;28;19928;-61
2022/11/15 12:41:14;;;;;;;;;;;19.90;44.20;;;;;;5071247;28;19924;-61
2022/11/15 12:43:42;;;;;;;;;;;19.90;44.20;;;;;;5071718;28;19936;-61
2022/11/15 12:46:13;;;;;;;;;;;19.90;44.20;;;;;;5071631;28;19955;-61
2022/11/15 12:48:57;;;;;;;;;;;19.90;44.30;;;;;;5087098;28;19931;-61
2022/11/15 12:51:43;;;;;;;;;;;19.90;44.20;;;;;;5069542;28;19924;-62
2022/11/15 12:54:30;;;;;;;;;;;19.90;44.30;;;;;;5070870;28;19931;-60
2022/11/15 12:57:12;;;;;;;;;;;19.90;44.30;;;;;;5043139;28;19935;-62
2022/11/15 12:59:50;;;;;;;;;;;19.90;44.30;;;;;;5072728;28;19966;-62
2022/11/15 13:02:18;;;;;;;;;;;19.90;44.40;;;;;;5073641;28;19925;-61
2022/11/15 13:04:45;;;;;;;;;;;19.90;44.30;;;;;;5072147;28;20204;-61
2022/11/15 13:07:12;;;;;;;;;;;19.90;44.30;;;;;;5066980;28;20317;-62
2022/11/15 13:09:52;;;;;;;;;;;19.90;44.40;;;;;;5086901;28;20009;-60
2022/11/15 13:12:40;;;;;;;;;;;20.00;44.50;;;;;;5086388;28;20282;-60
2022/11/15 13:15:22;;;;;;;;;;;19.90;44.40;;;;;;5089799;28;20015;-60
2022/11/15 13:17:51;;;;;;;;;;;19.90;44.40;;;;;;5064974;28;19924;-61
2022/11/15 13:20:22;;;;;;;;;;;19.90;44.40;;;;;;5089780;28;19928;-61
2022/11/15 13:22:51;;;;;;;;;;;19.90;44.40;;;;;;5086181;28;19924;-60
2022/11/15 13:25:19;;;;;;;;;;;19.90;44.40;;;;;;5090753;28;19925;-59
2022/11/15 13:27:47;;;;;;;;;;;19.90;44.40;;;;;;5075872;28;19928;-59
2022/11/15 13:30:15;;;;;;;;;;;19.90;44.40;;;;;;5069838;28;20038;-60
2022/11/15 13:32:41;;;;;;;;;;;19.90;44.50;;;;;;5069811;28;19924;-60
2022/11/15 13:35:09;;;;;;;;;;;20.00;44.50;;;;;;5071471;28;19924;-61
2022/11/15 13:37:36;;;;;;;;;;;19.90;44.50;;;;;;5068743;28;19931;-60
2022/11/15 13:40:23;;;;;;;;;;;19.90;44.50;;;;;;5091832;28;20143;-59
2022/11/15 13:42:50;;;;;;;;;;;19.90;44.50;;;;;;5076885;28;19924;-60
2022/11/15 13:45:17;;;;;;;;;;;20.00;44.50;;;;;;5072982;28;19929;-60
2022/11/15 13:47:44;;;;;;;;;;;20.00;44.50;;;;;;5087687;28;19936;-62
2022/11/15 13:50:13;;;;;;;;;;;20.00;44.50;;;;;;5068678;28;19928;-60
2022/11/15 13:52:42;;;;;;;;;;;20.00;44.60;;;;;;5067415;28;19993;-62
2022/11/15 13:55:10;;;;;;;;;;;20.00;44.60;;;;;;5070280;28;19994;-62
2022/11/15 13:57:38;;;;;;;;;;;20.00;44.60;;;;;;5085348;28;19924;-61
2022/11/15 14:00:06;;;;;;;;;;;20.00;44.60;;;;;;5085225;28;19929;-61
2022/11/15 14:02:33;;;;;;;;;;;20.00;44.60;;;;;;5066499;28;19933;-62
2022/11/15 14:05:00;;;;;;;;;;;20.00;44.60;;;;;;5084790;28;20507;-60
2022/11/15 14:07:29;;;;;;;;;;;20.00;44.70;;;;;;5071288;28;19932;-60
2022/11/15 14:09:56;;;;;;;;;;;20.00;44.70;;;;;;5071746;28;19924;-61
2022/11/15 14:12:24;;;;;;;;;;;20.00;44.70;;;;;;5086198;28;19928;-62
2022/11/15 14:14:51;;;;;;;;;;;20.00;44.70;;;;;;5086073;28;19932;-61
2022/11/15 14:17:20;;;;;;;;;;;20.00;44.80;;;;;;5086816;28;19925;-61
2022/11/15 14:19:47;;;;;;;;;;;20.00;44.80;;;;;;5074105;28;19932;-61
2022/11/15 14:22:15;;;;;;;;;;;20.00;44.80;;;;;;5068785;28;19936;-61
2022/11/15 14:24:46;;;;;;;;;;;20.00;44.80;;;;;;5089300;28;19924;-61
2022/11/15 14:27:20;;;;;;;;;;;20.00;44.80;;;;;;5082489;28;19931;-61
2022/11/15 14:29:47;;;;;;;;;;;20.00;44.80;;;;;;5083510;28;19935;-61
2022/11/15 14:32:15;;;;;;;;;;;20.00;44.80;;;;;;5070790;28;19932;-62
2022/11/15 14:34:42;;;;;;;;;;;20.00;44.90;;;;;;5063343;28;19939;-62
2022/11/15 14:37:11;;;;;;;;;;;20.00;44.90;;;;;;5081863;28;19928;-62
2022/11/15 14:39:38;;;;;;;;;;;20.00;44.90;;;;;;5069181;28;19925;-62